Time;durP1;ratioP1;P1;durP2;ratioP2;P2;SDS_P1;SDS_P2;PMS_P1;PMS_P2;Temp;Humidity;BMP_temperature;BMP_pressure;BME280_temperature;BME280_humidity;BME280_pressure;Samples;Min_cycle;Max_cycle;Signal;HPM_P1;HPM_P2
2021/03/02 10:18:03;;;;;;;8.23;3.97;;;12.50;99.90;;;;;;4833862;26;20226;-69
2021/03/02 10:20:30;;;;;;;9.37;4.03;;;12.40;99.90;;;;;;5013583;28;20247;-67
2021/03/02 10:23:03;;;;;;;9.67;4.23;;;12.50;99.90;;;;;;5013696;28;20237;-69
2021/03/02 10:25:40;;;;;;;10.27;4.40;;;12.30;99.90;;;;;;5013343;28;20212;-78
2021/03/02 10:28:06;;;;;;;8.63;3.50;;;12.40;99.90;;;;;;5012623;28;20241;-72
2021/03/02 10:30:33;;;;;;;11.93;4.60;;;12.40;99.90;;;;;;5013169;28;20206;-72
2021/03/02 10:32:59;;;;;;;9.40;4.47;;;12.50;99.90;;;;;;5013066;28;20222;-71
2021/03/02 10:35:26;;;;;;;10.00;4.23;;;12.70;99.90;;;;;;5013314;28;20208;-71
2021/03/02 10:37:52;;;;;;;14.07;4.27;;;12.80;99.90;;;;;;5012952;28;20292;-73
2021/03/02 10:40:20;;;;;;;9.00;4.13;;;12.60;99.90;;;;;;5013184;28;20213;-74
2021/03/02 10:42:46;;;;;;;9.03;4.10;;;12.60;99.90;;;;;;5012911;28;20233;-70
2021/03/02 10:45:13;;;;;;;11.13;3.90;;;12.80;99.90;;;;;;5007999;28;20607;-78
2021/03/02 10:47:40;;;;;;;8.83;3.83;;;12.70;99.90;;;;;;5008665;28;20229;-71
2021/03/02 10:50:07;;;;;;;9.37;3.87;;;12.60;99.90;;;;;;5012588;28;20293;-74
2021/03/02 10:52:34;;;;;;;10.30;4.40;;;12.60;99.90;;;;;;5012533;28;20747;-74
2021/03/02 10:55:01;;;;;;;13.33;5.17;;;12.60;99.90;;;;;;5012628;28;20212;-77
2021/03/02 10:57:27;;;;;;;9.63;4.50;;;12.80;99.90;;;;;;5012659;28;20658;-76
2021/03/02 10:59:53;;;;;;;11.20;4.37;;;12.80;99.90;;;;;;5007618;28;20202;-72
2021/03/02 11:02:20;;;;;;;10.40;4.40;;;12.90;99.90;;;;;;5012141;28;20549;-75
2021/03/02 11:04:47;;;;;;;10.27;4.63;;;12.90;99.90;;;;;;5012883;28;20217;-71
2021/03/02 11:07:13;;;;;;;8.87;4.37;;;12.80;99.90;;;;;;5012233;28;20233;-77
2021/03/02 11:09:40;;;;;;;10.13;4.27;;;12.90;99.90;;;;;;5012319;28;20197;-77
2021/03/02 11:12:07;;;;;;;9.43;4.70;;;12.80;99.90;;;;;;5012787;28;20209;-73
2021/03/02 11:14:33;;;;;;;10.00;4.70;;;12.80;99.90;;;;;;5012021;28;20229;-73
2021/03/02 11:17:00;;;;;;;8.77;4.23;;;13.00;99.90;;;;;;5011435;28;20221;-75
2021/03/02 11:19:26;;;;;;;8.10;4.27;;;13.00;99.90;;;;;;5012322;28;20213;-72
2021/03/02 11:21:52;;;;;;;10.80;4.80;;;13.00;99.90;;;;;;5012140;28;20212;-72
2021/03/02 11:24:18;;;;;;;8.50;4.10;;;13.30;99.90;;;;;;5011630;28;20264;-74
2021/03/02 11:26:45;;;;;;;10.20;5.03;;;13.30;99.90;;;;;;5011999;28;20344;-73
2021/03/02 11:29:12;;;;;;;8.50;4.23;;;13.50;99.90;;;;;;5012132;28;20216;-72
2021/03/02 11:31:38;;;;;;;9.80;4.47;;;13.60;99.90;;;;;;5012398;28;20216;-74
2021/03/02 11:34:04;;;;;;;8.43;4.63;;;13.80;99.90;;;;;;5012471;28;20226;-73
2021/03/02 11:36:31;;;;;;;10.03;4.23;;;13.90;99.90;;;;;;5011664;28;20665;-73
2021/03/02 11:38:57;;;;;;;10.50;4.30;;;13.90;99.90;;;;;;5012178;28;20210;-70
2021/03/02 11:41:23;;;;;;;11.57;5.33;;;13.80;99.90;;;;;;5012221;28;20205;-70
2021/03/02 11:43:50;;;;;;;9.43;5.10;;;13.80;99.90;;;;;;5011778;28;20237;-75
2021/03/02 11:46:17;;;;;;;10.10;4.93;;;13.80;99.90;;;;;;5011987;28;20309;-75
2021/03/02 11:48:44;;;;;;;13.90;4.40;;;13.90;99.90;;;;;;5011860;28;20704;-74
2021/03/02 11:51:10;;;;;;;7.50;4.07;;;13.90;99.90;;;;;;5011426;28;20588;-73
2021/03/02 11:53:36;;;;;;;9.60;4.67;;;13.90;99.90;;;;;;5012007;28;20225;-73
2021/03/02 11:56:03;;;;;;;13.40;5.33;;;14.10;99.90;;;;;;5011627;28;20296;-73
2021/03/02 11:58:29;;;;;;;9.93;4.70;;;14.20;99.90;;;;;;5011634;28;20568;-76
2021/03/02 12:00:56;;;;;;;9.80;4.60;;;14.30;99.90;;;;;;5011798;28;20213;-72
2021/03/02 12:03:23;;;;;;;12.37;4.67;;;14.30;99.90;;;;;;5011354;28;20718;-74
2021/03/02 12:05:50;;;;;;;10.57;5.20;;;14.40;99.90;;;;;;5012061;28;20260;-73
2021/03/02 12:08:16;;;;;;;10.40;4.80;;;14.40;99.90;;;;;;5012665;28;20269;-72
2021/03/02 12:10:43;;;;;;;12.27;4.40;;;14.40;99.90;;;;;;5012642;28;20241;-72
2021/03/02 12:13:10;;;;;;;8.50;4.73;;;14.40;99.90;;;;;;5012949;28;20226;-72
2021/03/02 12:15:36;;;;;;;12.80;4.97;;;14.50;99.90;;;;;;5013275;28;20205;-76
2021/03/02 12:18:04;;;;;;;8.73;4.67;;;14.50;99.90;;;;;;5012443;28;20209;-76
2021/03/02 12:20:30;;;;;;;13.93;4.87;;;14.70;99.90;;;;;;5012341;28;20876;-77
2021/03/02 12:22:56;;;;;;;9.80;4.80;;;14.80;99.90;;;;;;5013064;28;20237;-74
2021/03/02 12:25:22;;;;;;;10.47;4.73;;;15.00;99.90;;;;;;5013007;28;20210;-73
2021/03/02 12:27:49;;;;;;;9.77;4.70;;;15.00;99.90;;;;;;5013030;28;20237;-73
2021/03/02 12:30:16;;;;;;;8.23;4.20;;;14.90;99.90;;;;;;5012658;28;20252;-73
2021/03/02 12:32:42;;;;;;;11.50;4.87;;;14.80;99.90;;;;;;5012746;28;20256;-72
2021/03/02 12:35:10;;;;;;;9.53;4.67;;;14.80;99.90;;;;;;5013177;28;20214;-72
2021/03/02 12:37:36;;;;;;;9.33;4.30;;;14.90;99.90;;;;;;5016464;28;20652;-72
2021/03/02 12:40:04;;;;;;;12.23;4.63;;;15.00;99.90;;;;;;5016598;28;20213;-72
2021/03/02 12:42:30;;;;;;;10.37;5.03;;;15.00;99.90;;;;;;5016365;28;20216;-73
2021/03/02 12:44:57;;;;;;;8.63;4.77;;;15.10;99.90;;;;;;5016389;28;20289;-71
2021/03/02 12:47:23;;;;;;;15.23;4.83;;;14.90;99.90;;;;;;5016251;28;20230;-73
2021/03/02 12:49:49;;;;;;;10.50;4.70;;;15.00;99.90;;;;;;5016383;28;20198;-72
2021/03/02 12:52:16;;;;;;;10.20;4.33;;;15.20;99.90;;;;;;5016595;28;20210;-71
2021/03/02 12:54:43;;;;;;;14.37;5.37;;;15.20;99.90;;;;;;5016121;28;20205;-72
2021/03/02 12:57:09;;;;;;;11.67;5.03;;;15.30;99.90;;;;;;5016364;28;20214;-71
2021/03/02 12:59:36;;;;;;;12.53;4.50;;;15.40;99.90;;;;;;5015868;28;20220;-71
2021/03/02 13:02:03;;;;;;;8.57;4.10;;;15.40;99.90;;;;;;5015905;28;20206;-72
2021/03/02 13:04:31;;;;;;;15.10;5.00;;;15.50;99.90;;;;;;5016004;28;20325;-71
2021/03/02 13:06:57;;;;;;;12.47;3.97;;;15.40;99.70;;;;;;5015830;28;20222;-71
2021/03/02 13:09:25;;;;;;;9.37;4.33;;;15.50;99.90;;;;;;5015898;28;20707;-71
2021/03/02 13:11:52;;;;;;;9.13;4.47;;;15.70;99.90;;;;;;5016041;28;20236;-72
2021/03/02 13:14:18;;;;;;;14.13;4.93;;;15.70;99.40;;;;;;5015826;28;20252;-71
2021/03/02 13:16:45;;;;;;;11.03;4.53;;;15.60;99.70;;;;;;5015607;28;20683;-72
2021/03/02 13:19:12;;;;;;;10.73;4.07;;;15.70;99.30;;;;;;5015542;28;20667;-71
2021/03/02 13:21:38;;;;;;;12.23;4.47;;;15.70;99.20;;;;;;5015457;28;20213;-72
2021/03/02 13:24:05;;;;;;;10.90;4.67;;;15.70;99.40;;;;;;5016040;28;20237;-71
2021/03/02 13:26:35;;;;;;;7.77;4.57;;;15.80;99.10;;;;;;5015653;28;20212;-72
2021/03/02 13:29:09;;;;;;;11.03;5.10;;;15.80;99.30;;;;;;5016000;28;20210;-72
2021/03/02 13:31:37;;;;;;;9.23;4.23;;;15.70;99.10;;;;;;5015476;28;20206;-71
2021/03/02 13:34:11;;;;;;;9.97;4.77;;;15.80;99.80;;;;;;5015619;28;20230;-71
2021/03/02 13:36:39;;;;;;;9.00;4.33;;;16.00;98.70;;;;;;5015703;28;20209;-71
2021/03/02 13:39:05;;;;;;;7.27;3.93;;;15.90;98.70;;;;;;5015404;28;20210;-71
2021/03/02 13:41:34;;;;;;;11.10;4.70;;;16.00;99.00;;;;;;5015383;28;20210;-71
2021/03/02 13:44:01;;;;;;;11.23;4.73;;;16.00;99.00;;;;;;5015154;28;20252;-72
2021/03/02 13:46:29;;;;;;;10.37;4.43;;;16.10;99.00;;;;;;5015537;28;20289;-72
2021/03/02 13:48:56;;;;;;;6.53;4.07;;;16.10;98.90;;;;;;5014686;28;20242;-71
2021/03/02 13:51:23;;;;;;;9.53;4.13;;;16.00;98.30;;;;;;5015296;28;20580;-71
2021/03/02 13:53:49;;;;;;;8.87;4.17;;;16.00;98.40;;;;;;5015079;28;20234;-71
2021/03/02 13:56:15;;;;;;;13.20;4.97;;;16.00;98.90;;;;;;5015077;28;20201;-71
2021/03/02 13:58:42;;;;;;;12.13;4.80;;;16.30;98.80;;;;;;5014984;28;20283;-72
2021/03/02 14:01:09;;;;;;;10.63;4.70;;;16.30;98.00;;;;;;5015039;28;20213;-72
2021/03/02 14:03:38;;;;;;;9.00;4.00;;;16.30;98.50;;;;;;5014999;28;20226;-71
2021/03/02 14:06:05;;;;;;;11.33;3.80;;;16.40;97.20;;;;;;5015109;28;20615;-71
2021/03/02 14:08:31;;;;;;;11.03;4.00;;;16.50;97.10;;;;;;5014721;28;20703;-71
2021/03/02 14:10:58;;;;;;;10.80;4.67;;;16.50;97.10;;;;;;5014800;28;20216;-71
2021/03/02 14:13:26;;;;;;;10.07;4.33;;;16.50;96.90;;;;;;5014890;28;20327;-72
2021/03/02 14:15:53;;;;;;;10.50;4.53;;;16.60;97.50;;;;;;5014541;28;20217;-72
2021/03/02 14:18:21;;;;;;;8.57;4.27;;;16.70;96.30;;;;;;5014634;28;20202;-72
2021/03/02 14:20:47;;;;;;;15.40;4.63;;;16.70;95.90;;;;;;5014773;28;20217;-72
2021/03/02 14:23:14;;;;;;;12.50;4.37;;;16.70;96.00;;;;;;5014554;28;20246;-72
2021/03/02 14:25:41;;;;;;;10.13;5.30;;;16.80;95.30;;;;;;5014755;28;20213;-72
2021/03/02 14:28:09;;;;;;;10.23;4.43;;;16.90;96.20;;;;;;5014484;28;20715;-72
2021/03/02 14:30:35;;;;;;;12.93;4.80;;;17.00;95.40;;;;;;5014467;28;20206;-71
2021/03/02 14:33:02;;;;;;;9.73;3.67;;;17.00;95.30;;;;;;5014151;28;20248;-71
2021/03/02 14:35:29;;;;;;;11.17;4.37;;;17.00;95.30;;;;;;5014885;28;20206;-72
2021/03/02 14:37:57;;;;;;;12.57;4.10;;;17.10;95.20;;;;;;5016782;28;20214;-80
2021/03/02 14:40:23;;;;;;;12.27;4.63;;;17.20;95.10;;;;;;5019363;28;20300;-73
2021/03/02 14:42:54;;;;;;;13.23;4.70;;;17.10;95.00;;;;;;5017382;28;20242;-80
2021/03/02 14:45:23;;;;;;;8.70;3.47;;;17.10;95.00;;;;;;5016861;28;20288;-72
2021/03/02 14:47:54;;;;;;;12.73;4.53;;;17.10;95.70;;;;;;5011036;28;20253;-83
2021/03/02 14:50:23;;;;;;;9.70;3.63;;;17.00;96.30;;;;;;5013057;28;20202;-74
2021/03/02 14:52:52;;;;;;;12.13;4.90;;;17.00;95.70;;;;;;5009727;28;20236;-81
2021/03/02 14:55:20;;;;;;;13.23;4.13;;;17.00;95.60;;;;;;5014022;28;20215;-79
2021/03/02 14:57:49;;;;;;;11.67;4.63;;;16.80;95.00;;;;;;5014194;28;20201;-74
2021/03/02 15:00:16;;;;;;;9.53;4.30;;;16.70;95.20;;;;;;5012958;28;20209;-72
2021/03/02 15:02:43;;;;;;;9.67;4.37;;;16.90;95.50;;;;;;5013626;28;20236;-80
2021/03/02 15:05:11;;;;;;;9.43;4.27;;;16.80;95.60;;;;;;5013637;28;20210;-72
2021/03/02 15:07:40;;;;;;;12.47;4.40;;;17.00;95.50;;;;;;5014050;28;20338;-71
2021/03/02 15:10:09;;;;;;;10.87;4.10;;;17.20;95.30;;;;;;5013772;28;20209;-74
2021/03/02 15:12:36;;;;;;;9.50;4.13;;;17.00;95.50;;;;;;5013608;28;20229;-80
2021/03/02 15:15:04;;;;;;;10.93;4.67;;;17.00;95.20;;;;;;5013659;28;20216;-72
2021/03/02 15:17:31;;;;;;;10.00;3.93;;;17.10;94.60;;;;;;5013662;28;20228;-80
2021/03/02 15:19:57;;;;;;;12.70;4.60;;;17.20;94.70;;;;;;5013719;28;20260;-72
2021/03/02 15:22:25;;;;;;;10.33;4.40;;;17.30;94.60;;;;;;5013437;28;20274;-73
2021/03/02 15:24:53;;;;;;;10.60;4.80;;;17.20;95.10;;;;;;5013540;28;20206;-80
2021/03/02 15:27:22;;;;;;;15.70;4.33;;;17.20;95.40;;;;;;5013125;28;20291;-72
2021/03/02 15:29:48;;;;;;;8.40;3.80;;;17.20;95.20;;;;;;5013782;28;20201;-73
2021/03/02 15:32:15;;;;;;;12.83;4.47;;;17.20;94.70;;;;;;5014265;28;20252;-76
2021/03/02 15:34:45;;;;;;;12.13;4.03;;;17.10;95.50;;;;;;5013418;28;20212;-72
2021/03/02 15:37:12;;;;;;;11.30;4.17;;;17.20;95.10;;;;;;5013210;28;20210;-74
2021/03/02 15:39:40;;;;;;;13.23;4.93;;;17.20;94.60;;;;;;5013618;28;20224;-79
2021/03/02 15:42:09;;;;;;;9.27;3.93;;;17.00;95.20;;;;;;5013255;28;20201;-74
2021/03/02 15:44:36;;;;;;;13.00;4.90;;;17.10;95.20;;;;;;5012816;28;20226;-78
2021/03/02 15:47:04;;;;;;;10.80;4.50;;;17.10;95.30;;;;;;5013076;28;20213;-77
2021/03/02 15:49:31;;;;;;;12.10;4.10;;;17.30;95.00;;;;;;5013278;28;20206;-74
2021/03/02 15:51:57;;;;;;;11.73;4.13;;;17.30;95.00;;;;;;5013529;28;20213;-74
2021/03/02 15:54:25;;;;;;;14.07;4.00;;;17.30;95.70;;;;;;5013155;28;20225;-72
2021/03/02 15:56:51;;;;;;;11.57;4.20;;;17.30;95.60;;;;;;5012934;28;20296;-77
2021/03/02 15:59:18;;;;;;;11.70;4.60;;;17.30;95.30;;;;;;5012914;28;20213;-72
2021/03/02 16:01:50;;;;;;;9.70;4.53;;;17.30;95.20;;;;;;5012992;28;20275;-73
2021/03/02 16:04:23;;;;;;;13.90;4.40;;;17.20;95.00;;;;;;5012952;28;20596;-71
2021/03/02 16:06:55;;;;;;;14.00;4.40;;;16.90;94.90;;;;;;5012887;28;20260;-74
2021/03/02 16:09:30;;;;;;;10.37;4.40;;;16.70;95.90;;;;;;5008549;28;20531;-76
2021/03/02 16:11:57;;;;;;;9.07;4.07;;;16.50;94.90;;;;;;5011593;28;20205;-75
2021/03/02 16:14:26;;;;;;;8.87;3.63;;;16.50;95.90;;;;;;5015988;28;20291;-74
2021/03/02 16:16:55;;;;;;;11.33;4.57;;;16.50;96.10;;;;;;5004076;28;20214;-74
2021/03/02 16:19:25;;;;;;;10.83;4.13;;;16.60;96.00;;;;;;5014707;28;20300;-74
2021/03/02 16:21:59;;;;;;;10.87;3.97;;;16.70;95.90;;;;;;5014298;28;20205;-72
2021/03/02 16:24:25;;;;;;;9.90;4.17;;;16.80;95.90;;;;;;5015227;28;20233;-72
2021/03/02 16:26:52;;;;;;;10.33;4.40;;;16.70;95.70;;;;;;5015246;28;20560;-72
2021/03/02 16:29:18;;;;;;;9.40;4.83;;;16.60;96.30;;;;;;5014871;28;20248;-73
2021/03/02 16:31:46;;;;;;;9.03;4.00;;;16.60;96.50;;;;;;5014817;28;20210;-74
2021/03/02 16:34:13;;;;;;;12.90;4.07;;;16.40;96.40;;;;;;5015128;28;20506;-72
2021/03/02 16:36:39;;;;;;;11.50;4.63;;;16.40;96.40;;;;;;5015569;28;20206;-72
2021/03/02 16:39:07;;;;;;;15.57;4.33;;;16.30;96.30;;;;;;5014668;28;20221;-72
2021/03/02 16:41:34;;;;;;;12.87;4.30;;;16.30;97.20;;;;;;5014539;28;21096;-73
2021/03/02 16:44:01;;;;;;;13.50;5.17;;;16.30;97.20;;;;;;5015139;28;20233;-72
2021/03/02 16:46:35;;;;;;;12.70;3.90;;;16.10;97.60;;;;;;5015235;28;20256;-72
2021/03/02 16:49:12;;;;;;;13.03;4.23;;;16.10;97.80;;;;;;5014992;28;20245;-75
2021/03/02 16:51:45;;;;;;;19.00;4.43;;;16.00;98.20;;;;;;5015148;28;20213;-74
2021/03/02 16:54:12;;;;;;;13.40;4.83;;;15.80;99.20;;;;;;5015244;28;20233;-72
2021/03/02 16:56:48;;;;;;;16.80;4.77;;;15.80;99.30;;;;;;5014770;28;20381;-73
2021/03/02 16:59:16;;;;;;;12.97;4.23;;;15.70;99.00;;;;;;5015114;28;20209;-73
2021/03/02 17:01:44;;;;;;;16.30;4.33;;;15.60;99.50;;;;;;5014272;28;20213;-74
2021/03/02 17:04:16;;;;;;;7.70;3.87;;;15.40;99.90;;;;;;5014617;28;20704;-73
2021/03/02 17:06:43;;;;;;;13.23;5.37;;;15.30;99.90;;;;;;5014636;28;20205;-73
2021/03/02 17:09:12;;;;;;;14.27;4.80;;;15.10;99.90;;;;;;5014525;28;20241;-73
2021/03/02 17:11:39;;;;;;;20.80;4.20;;;15.00;99.90;;;;;;5014322;28;20209;-73
2021/03/02 17:14:05;;;;;;;13.23;4.47;;;14.80;99.90;;;;;;5014408;28;20226;-72
2021/03/02 17:16:31;;;;;;;12.67;3.37;;;14.70;99.90;;;;;;5014690;28;20217;-72
2021/03/02 17:18:57;;;;;;;14.17;4.40;;;14.60;99.90;;;;;;5014542;28;20213;-72
2021/03/02 17:21:25;;;;;;;12.40;3.63;;;14.40;99.90;;;;;;5014553;28;20209;-72
2021/03/02 17:23:51;;;;;;;12.90;3.93;;;14.30;99.90;;;;;;5014017;28;20231;-73
2021/03/02 17:26:17;;;;;;;15.50;3.70;;;14.10;99.90;;;;;;5014233;28;20210;-73
2021/03/02 17:28:43;;;;;;;12.10;4.10;;;13.90;99.90;;;;;;5014194;28;20237;-73
2021/03/02 17:31:10;;;;;;;13.70;4.83;;;13.70;99.90;;;;;;5014389;28;20225;-73
2021/03/02 17:33:36;;;;;;;13.53;4.17;;;13.50;99.90;;;;;;5013291;28;20222;-73
2021/03/02 17:36:03;;;;;;;14.57;3.97;;;13.40;99.90;;;;;;5013965;28;20217;-72
2021/03/02 17:38:30;;;;;;;17.77;3.77;;;13.20;99.90;;;;;;5014283;28;20214;-73
2021/03/02 17:40:56;;;;;;;18.07;4.20;;;13.00;99.90;;;;;;5014534;28;20213;-73
2021/03/02 17:43:23;;;;;;;9.37;3.80;;;12.90;99.90;;;;;;5014662;28;20308;-75
2021/03/02 17:45:49;;;;;;;10.40;3.80;;;12.80;99.90;;;;;;5015747;28;20263;-74
2021/03/02 17:48:15;;;;;;;16.10;5.63;;;12.70;99.90;;;;;;5014929;28;20234;-77
2021/03/02 17:50:42;;;;;;;10.70;4.30;;;12.60;99.90;;;;;;5015401;28;20206;-78
2021/03/02 17:53:13;;;;;;;13.10;4.63;;;12.40;99.90;;;;;;5022210;28;20233;-74
2021/03/02 17:55:40;;;;;;;11.20;4.17;;;12.30;99.90;;;;;;5014639;28;20297;-79
2021/03/02 17:58:07;;;;;;;12.50;4.27;;;12.20;99.90;;;;;;5013926;28;20206;-72
2021/03/02 18:00:33;;;;;;;8.90;3.50;;;12.10;99.90;;;;;;5013904;28;20217;-76
2021/03/02 18:02:59;;;;;;;11.03;4.17;;;12.00;99.90;;;;;;5013476;28;20252;-73
2021/03/02 18:05:26;;;;;;;11.00;3.50;;;11.90;99.90;;;;;;5013095;28;20256;-71
2021/03/02 18:07:52;;;;;;;19.63;4.70;;;11.90;99.90;;;;;;5015203;28;20257;-73
2021/03/02 18:10:18;;;;;;;10.10;4.13;;;11.80;99.90;;;;;;5014706;28;20206;-72
2021/03/02 18:12:45;;;;;;;9.97;4.63;;;11.60;99.90;;;;;;5014786;28;20332;-72
2021/03/02 18:15:12;;;;;;;14.00;5.00;;;11.50;99.90;;;;;;5014748;28;20201;-71
2021/03/02 18:17:39;;;;;;;14.93;5.00;;;11.40;99.90;;;;;;5014229;28;20466;-72
2021/03/02 18:20:06;;;;;;;19.37;5.77;;;11.30;99.90;;;;;;5014933;28;20209;-74
2021/03/02 18:22:33;;;;;;;12.13;4.90;;;11.20;99.90;;;;;;5014474;28;20576;-79
2021/03/02 18:24:59;;;;;;;12.30;5.03;;;11.20;99.90;;;;;;5014593;28;20209;-73
2021/03/02 18:27:25;;;;;;;14.73;4.90;;;11.10;99.90;;;;;;5014865;28;20232;-75
2021/03/02 18:29:52;;;;;;;14.50;5.57;;;11.00;99.90;;;;;;5013637;28;20218;-73
2021/03/02 18:32:18;;;;;;;13.60;5.33;;;10.80;99.90;;;;;;5012306;28;20209;-73
2021/03/02 18:34:45;;;;;;;15.17;4.53;;;10.80;99.90;;;;;;5014421;28;20280;-73
2021/03/02 18:37:11;;;;;;;12.63;5.00;;;10.80;99.90;;;;;;5014567;28;20746;-73
2021/03/02 18:39:37;;;;;;;12.87;4.80;;;10.70;99.90;;;;;;5014365;28;20206;-73
2021/03/02 18:42:04;;;;;;;16.87;6.10;;;10.60;99.90;;;;;;5014394;28;20683;-73
2021/03/02 18:44:31;;;;;;;13.33;5.33;;;10.60;99.90;;;;;;5014510;28;20245;-73
2021/03/02 18:46:58;;;;;;;12.10;4.73;;;10.60;99.90;;;;;;5014338;28;20210;-73
2021/03/02 18:49:24;;;;;;;16.03;5.07;;;10.50;99.90;;;;;;5014098;28;20729;-72
2021/03/02 18:51:51;;;;;;;10.87;4.83;;;10.50;99.90;;;;;;5014201;28;20201;-73
2021/03/02 18:54:17;;;;;;;18.63;4.87;;;10.40;99.90;;;;;;5013980;28;20320;-73
2021/03/02 18:56:43;;;;;;;16.30;5.63;;;10.30;99.90;;;;;;5014532;28;20217;-73
2021/03/02 18:59:09;;;;;;;15.97;5.30;;;10.20;99.90;;;;;;5014292;28;20213;-73
2021/03/02 19:01:36;;;;;;;16.00;5.77;;;10.20;99.90;;;;;;5014182;28;20608;-73
2021/03/02 19:04:04;;;;;;;11.27;4.93;;;10.20;99.90;;;;;;5013775;28;20692;-73
2021/03/02 19:06:30;;;;;;;15.07;5.70;;;10.10;99.90;;;;;;5013620;28;20221;-73
2021/03/02 19:08:57;;;;;;;12.93;5.23;;;10.00;99.90;;;;;;5013667;28;20260;-73
2021/03/02 19:11:23;;;;;;;16.10;5.60;;;10.00;99.90;;;;;;5013998;28;20300;-73
2021/03/02 19:13:49;;;;;;;13.23;5.43;;;10.00;99.90;;;;;;5013762;28;20233;-72
2021/03/02 19:16:16;;;;;;;15.83;5.33;;;9.90;99.90;;;;;;5013631;28;20213;-73
2021/03/02 19:18:42;;;;;;;17.33;5.43;;;9.80;99.90;;;;;;5013530;28;20241;-72
2021/03/02 19:21:09;;;;;;;11.60;5.60;;;9.80;99.90;;;;;;5013428;28;20209;-72
2021/03/02 19:23:36;;;;;;;15.53;5.70;;;9.60;99.90;;;;;;5013391;28;20237;-72
2021/03/02 19:26:03;;;;;;;11.13;6.07;;;9.60;99.90;;;;;;5013740;28;20267;-72
2021/03/02 19:28:29;;;;;;;14.70;5.80;;;9.50;99.90;;;;;;5013615;28;20240;-73
2021/03/02 19:30:56;;;;;;;16.93;5.83;;;9.50;99.90;;;;;;5013417;28;20205;-72
2021/03/02 19:33:22;;;;;;;18.67;6.07;;;9.40;99.90;;;;;;5013236;28;20229;-72
2021/03/02 19:35:49;;;;;;;22.67;6.13;;;9.50;99.90;;;;;;5013511;28;20201;-72
2021/03/02 19:38:17;;;;;;;17.57;6.13;;;9.40;99.90;;;;;;5013351;28;20719;-72
2021/03/02 19:40:43;;;;;;;16.10;5.83;;;9.30;99.90;;;;;;5013697;28;20205;-72
2021/03/02 19:43:09;;;;;;;11.30;5.97;;;9.20;99.90;;;;;;5013341;28;20240;-72
2021/03/02 19:45:36;;;;;;;17.47;6.17;;;9.20;99.90;;;;;;5012749;28;20224;-73
2021/03/02 19:48:02;;;;;;;16.80;6.30;;;9.10;99.90;;;;;;5013267;28;20237;-73
2021/03/02 19:50:28;;;;;;;11.13;5.67;;;9.10;99.90;;;;;;5012987;28;20220;-72
2021/03/02 19:52:55;;;;;;;13.03;6.00;;;9.10;99.90;;;;;;5013340;28;20226;-72
2021/03/02 19:55:23;;;;;;;14.13;6.43;;;9.00;99.90;;;;;;5013404;28;20213;-72
2021/03/02 19:57:49;;;;;;;13.47;6.10;;;8.90;99.90;;;;;;5013281;28;20213;-72
2021/03/02 20:00:16;;;;;;;18.33;5.93;;;8.80;99.90;;;;;;5013029;28;20209;-72
2021/03/02 20:02:42;;;;;;;12.87;5.77;;;8.70;99.90;;;;;;5012767;28;20225;-72
2021/03/02 20:05:10;;;;;;;12.57;5.97;;;8.60;99.90;;;;;;5013557;28;20206;-72
2021/03/02 20:07:37;;;;;;;12.53;5.57;;;8.50;99.90;;;;;;5013303;28;20237;-72
2021/03/02 20:10:04;;;;;;;14.83;6.10;;;8.60;99.90;;;;;;5012892;28;20295;-72
2021/03/02 20:12:32;;;;;;;11.47;5.67;;;8.50;99.90;;;;;;5012915;28;20213;-72
2021/03/02 20:14:58;;;;;;;14.60;5.70;;;8.50;99.90;;;;;;5012620;28;20205;-72
2021/03/02 20:17:24;;;;;;;13.30;6.13;;;8.60;99.90;;;;;;5012604;28;20680;-72
2021/03/02 20:19:51;;;;;;;15.60;6.57;;;8.50;99.90;;;;;;5012705;28;20577;-72
2021/03/02 20:22:18;;;;;;;15.03;6.63;;;8.50;99.90;;;;;;5012483;28;20268;-72
2021/03/02 20:24:44;;;;;;;14.40;6.90;;;8.50;99.90;;;;;;5007690;28;20201;-72
2021/03/02 20:27:12;;;;;;;16.90;7.17;;;8.40;99.90;;;;;;5001936;28;20210;-72
2021/03/02 20:29:39;;;;;;;14.80;6.27;;;8.30;99.90;;;;;;4993588;28;20211;-72
2021/03/02 20:32:06;;;;;;;15.60;7.47;;;8.30;99.90;;;;;;5001976;28;20786;-72
2021/03/02 20:34:32;;;;;;;14.90;6.57;;;8.20;99.90;;;;;;5001471;28;20233;-72
2021/03/02 20:36:59;;;;;;;13.80;6.37;;;8.20;99.90;;;;;;5001759;28;20217;-72
2021/03/02 20:39:25;;;;;;;14.87;6.87;;;8.20;99.90;;;;;;5002369;28;20207;-72
2021/03/02 20:41:51;;;;;;;15.40;6.13;;;8.10;99.90;;;;;;5005366;28;20216;-72
2021/03/02 20:44:18;;;;;;;14.43;6.10;;;8.10;99.90;;;;;;5009880;28;20245;-72
2021/03/02 20:46:45;;;;;;;13.60;6.00;;;8.10;99.90;;;;;;5007077;28;20213;-72
2021/03/02 20:49:11;;;;;;;14.50;5.87;;;8.00;99.90;;;;;;5003664;28;20245;-72
2021/03/02 20:51:39;;;;;;;13.90;6.37;;;7.90;99.90;;;;;;5004094;28;20202;-72
2021/03/02 20:54:06;;;;;;;11.87;5.70;;;7.90;99.90;;;;;;5002167;28;20222;-72
2021/03/02 20:56:32;;;;;;;13.83;5.97;;;7.90;99.90;;;;;;4998713;28;20214;-72
2021/03/02 20:58:59;;;;;;;11.37;4.93;;;7.90;99.90;;;;;;5010856;28;20210;-72
2021/03/02 21:01:25;;;;;;;13.93;5.90;;;7.80;99.90;;;;;;5008463;28;20593;-72
2021/03/02 21:03:52;;;;;;;9.70;5.20;;;7.80;99.90;;;;;;5010095;28;20257;-72
2021/03/02 21:06:18;;;;;;;13.80;6.07;;;7.80;99.90;;;;;;5000187;28;20257;-72
2021/03/02 21:08:44;;;;;;;14.97;6.27;;;7.70;99.90;;;;;;5009259;28;20240;-72
2021/03/02 21:11:11;;;;;;;15.10;6.07;;;7.80;99.90;;;;;;5009053;28;20210;-72
2021/03/02 21:13:37;;;;;;;16.20;6.87;;;7.80;99.90;;;;;;5005784;28;20230;-72
2021/03/02 21:16:04;;;;;;;13.70;6.40;;;7.70;99.90;;;;;;5012082;28;20217;-72
2021/03/02 21:18:30;;;;;;;14.37;6.30;;;7.70;99.90;;;;;;5007682;28;20210;-72
2021/03/02 21:20:57;;;;;;;11.97;5.47;;;7.60;99.90;;;;;;5002641;28;20660;-72
2021/03/02 21:23:23;;;;;;;15.93;6.23;;;7.60;99.90;;;;;;5007079;28;20231;-72
2021/03/02 21:25:50;;;;;;;13.83;5.97;;;7.50;99.90;;;;;;5002945;28;20207;-72
2021/03/02 21:28:16;;;;;;;12.17;5.27;;;7.50;99.90;;;;;;5014190;28;20233;-72
2021/03/02 21:30:42;;;;;;;9.80;5.60;;;7.50;99.90;;;;;;5006759;28;20647;-72
2021/03/02 21:33:09;;;;;;;10.60;5.60;;;7.60;99.90;;;;;;5012957;28;20283;-72
2021/03/02 21:35:36;;;;;;;12.60;6.40;;;7.60;99.90;;;;;;5001230;28;20209;-72
2021/03/02 21:38:03;;;;;;;11.87;5.53;;;7.50;99.90;;;;;;5002798;28;20687;-72
2021/03/02 21:40:30;;;;;;;15.60;5.93;;;7.50;99.90;;;;;;5003152;28;20217;-72
2021/03/02 21:42:56;;;;;;;16.63;6.00;;;7.50;99.90;;;;;;5011829;28;20255;-72
2021/03/02 21:45:23;;;;;;;16.43;5.97;;;7.60;99.90;;;;;;5001468;28;20206;-72
2021/03/02 21:47:49;;;;;;;13.37;5.03;;;7.50;99.90;;;;;;5007625;28;20237;-72
2021/03/02 21:50:17;;;;;;;14.00;6.33;;;7.50;99.90;;;;;;5001416;28;20218;-72
2021/03/02 21:52:43;;;;;;;13.07;5.67;;;7.50;99.90;;;;;;5012059;28;20744;-72
2021/03/02 21:55:12;;;;;;;13.53;5.77;;;7.40;99.90;;;;;;5000488;28;20259;-72
2021/03/02 21:57:38;;;;;;;10.20;5.47;;;7.40;99.90;;;;;;5006254;28;20210;-72
2021/03/02 22:00:06;;;;;;;10.47;4.90;;;7.40;99.90;;;;;;5010301;28;20210;-72
2021/03/02 22:02:33;;;;;;;13.93;6.30;;;7.30;99.90;;;;;;5013308;28;20243;-72
2021/03/02 22:05:00;;;;;;;12.83;5.40;;;7.30;99.90;;;;;;5003679;28;20262;-72
2021/03/02 22:07:26;;;;;;;10.67;5.20;;;7.30;99.90;;;;;;5005531;28;20201;-72
2021/03/02 22:09:52;;;;;;;10.87;5.10;;;7.30;99.90;;;;;;5004195;28;20203;-72
2021/03/02 22:12:20;;;;;;;12.73;6.00;;;7.20;99.90;;;;;;5007273;28;20664;-72
2021/03/02 22:14:47;;;;;;;12.60;4.97;;;7.10;99.90;;;;;;5000278;28;20658;-72
